createdAt,value
2019-03-04T00:00:22.005Z,990.84
2019-03-04T00:01:22.025Z,990.80
2019-03-04T00:02:22.031Z,990.82
2019-03-04T00:03:22.353Z,990.82
2019-03-04T00:04:22.063Z,990.83
2019-03-04T00:05:22.077Z,990.84
2019-03-04T00:06:22.097Z,990.74
2019-03-04T00:07:22.097Z,990.75
2019-03-04T00:08:22.160Z,990.71
2019-03-04T00:09:22.170Z,990.66
2019-03-04T00:10:22.265Z,990.63
2019-03-04T00:11:22.155Z,990.62
2019-03-04T00:12:22.163Z,990.49
2019-03-04T00:13:22.372Z,990.48
2019-03-04T00:14:22.199Z,990.50
2019-03-04T00:15:22.199Z,990.60
2019-03-04T00:16:22.213Z,990.52
2019-03-04T00:17:22.231Z,990.54
2019-03-04T00:18:22.253Z,990.50
2019-03-04T00:19:22.262Z,990.43
2019-03-04T00:20:22.265Z,990.41
2019-03-04T00:21:22.285Z,990.55
2019-03-04T00:22:22.301Z,990.40
2019-03-04T00:23:22.306Z,990.37
2019-03-04T00:24:22.322Z,990.31
2019-03-04T00:25:22.334Z,990.22
2019-03-04T00:26:22.351Z,990.22
2019-03-04T00:27:22.363Z,990.15
2019-03-04T00:28:22.380Z,990.24
2019-03-04T00:29:22.390Z,990.27
2019-03-04T00:30:22.407Z,990.22
2019-03-04T00:31:22.424Z,990.31
2019-03-04T00:32:22.427Z,990.27
2019-03-04T00:33:22.440Z,990.26
2019-03-04T00:34:22.451Z,990.23
2019-03-04T00:35:22.476Z,990.21
2019-03-04T00:36:22.481Z,990.17
2019-03-04T00:37:22.494Z,990.04
2019-03-04T00:38:22.509Z,989.98
2019-03-04T00:39:22.526Z,989.96
2019-03-04T00:40:22.535Z,989.89
2019-03-04T00:41:22.545Z,989.87
2019-03-04T00:42:22.561Z,989.80
2019-03-04T00:43:22.576Z,989.76
2019-03-04T00:44:22.612Z,989.71
2019-03-04T00:45:22.646Z,989.69
2019-03-04T00:46:22.626Z,989.67
2019-03-04T00:47:22.639Z,989.70
2019-03-04T00:48:22.640Z,989.64
2019-03-04T00:49:22.694Z,989.58
2019-03-04T00:50:22.674Z,989.53
2019-03-04T00:51:22.679Z,989.51
2019-03-04T00:52:22.691Z,989.54
2019-03-04T00:53:22.705Z,989.51
2019-03-04T00:54:22.723Z,989.50
2019-03-04T00:55:22.738Z,989.56
2019-03-04T00:56:22.748Z,989.53
2019-03-04T00:57:22.766Z,989.52
2019-03-04T00:58:22.774Z,989.49
2019-03-04T00:59:22.797Z,989.45
2019-03-04T01:00:22.802Z,989.38
2019-03-04T01:01:22.817Z,989.33
2019-03-04T01:02:22.824Z,989.27
2019-03-04T01:03:22.859Z,989.25
2019-03-04T01:04:22.851Z,989.22
2019-03-04T01:05:22.861Z,989.14
2019-03-04T01:06:22.879Z,989.07
2019-03-04T01:07:22.891Z,989.02
2019-03-04T01:08:22.906Z,989.05
2019-03-04T01:09:22.917Z,989.10
2019-03-04T01:10:22.939Z,989.03
2019-03-04T01:11:22.944Z,989.03
2019-03-04T01:12:22.954Z,989.04
2019-03-04T01:13:22.966Z,989.04
2019-03-04T01:14:22.983Z,988.99
2019-03-04T01:15:22.999Z,988.92
2019-03-04T01:16:23.026Z,988.89
2019-03-04T01:17:23.029Z,988.90
2019-03-04T01:18:23.038Z,988.95
2019-03-04T01:19:23.055Z,988.95
2019-03-04T01:20:23.070Z,988.94
2019-03-04T01:21:23.095Z,988.90
2019-03-04T01:22:23.091Z,988.87
2019-03-04T01:23:23.101Z,988.84
2019-03-04T01:24:23.116Z,988.84
2019-03-04T01:25:23.127Z,988.91
2019-03-04T01:26:23.141Z,988.87
2019-03-04T01:27:23.166Z,988.85
2019-03-04T01:28:23.169Z,988.81
2019-03-04T01:29:23.188Z,988.83
2019-03-04T01:30:23.195Z,988.77
2019-03-04T01:31:23.209Z,988.77
2019-03-04T01:32:23.222Z,988.80
2019-03-04T01:33:23.238Z,988.72
2019-03-04T01:34:23.254Z,988.77
2019-03-04T01:35:23.264Z,988.76
2019-03-04T01:36:23.272Z,988.75
2019-03-04T01:37:23.294Z,988.80
2019-03-04T01:38:23.313Z,988.75
2019-03-04T01:39:23.413Z,988.63
2019-03-04T01:40:23.342Z,988.52
2019-03-04T01:41:23.375Z,988.54
2019-03-04T01:42:23.363Z,988.58
2019-03-04T01:43:23.366Z,988.51
2019-03-04T01:44:23.377Z,988.50
2019-03-04T01:45:23.397Z,988.44
2019-03-04T01:46:23.409Z,988.41
2019-03-04T01:47:23.414Z,988.34
2019-03-04T01:48:23.440Z,988.33
2019-03-04T01:49:23.450Z,988.31
2019-03-04T01:50:23.457Z,988.29
2019-03-04T01:51:23.473Z,988.29
2019-03-04T01:52:23.495Z,988.16
2019-03-04T01:54:23.907Z,988.21
2019-03-04T01:55:24.101Z,988.12
2019-03-04T01:56:23.547Z,988.05
2019-03-04T01:57:23.552Z,988.00
2019-03-04T01:58:23.576Z,987.96
2019-03-04T01:59:23.593Z,988.01
2019-03-04T02:00:23.590Z,988.03
2019-03-04T02:01:23.607Z,987.91
2019-03-04T02:02:23.618Z,987.93
2019-03-04T02:03:23.629Z,987.81
2019-03-04T02:04:23.642Z,987.87
2019-03-04T02:05:23.655Z,987.74
2019-03-04T02:06:23.669Z,987.78
2019-03-04T02:07:23.688Z,987.66
2019-03-04T02:08:23.699Z,987.70
2019-03-04T02:09:23.710Z,987.75
2019-03-04T02:10:23.723Z,987.84
2019-03-04T02:11:23.736Z,987.80
2019-03-04T02:12:23.748Z,987.80
2019-03-04T02:13:23.766Z,987.76
2019-03-04T02:14:23.782Z,987.77
2019-03-04T02:15:23.802Z,987.82
2019-03-04T02:16:23.830Z,987.79
2019-03-04T02:17:23.819Z,987.76
2019-03-04T02:18:23.835Z,987.73
2019-03-04T02:19:23.842Z,987.61
2019-03-04T02:20:23.873Z,987.52
2019-03-04T02:21:23.869Z,987.37
2019-03-04T02:22:23.888Z,987.36
2019-03-04T02:23:23.898Z,987.51
2019-03-04T02:24:23.966Z,987.47
2019-03-04T02:25:24.223Z,987.42
2019-03-04T02:26:23.973Z,987.49
2019-03-04T02:27:23.954Z,987.34
2019-03-04T02:28:23.963Z,987.34
2019-03-04T02:29:23.978Z,987.27
2019-03-04T02:30:23.992Z,987.17
2019-03-04T02:31:24.024Z,987.15
2019-03-04T02:32:24.014Z,987.03
2019-03-04T02:33:24.036Z,986.98
2019-03-04T02:34:24.042Z,986.91
2019-03-04T02:35:24.066Z,986.82
2019-03-04T02:36:24.083Z,986.74
2019-03-04T02:37:24.080Z,986.88
2019-03-04T02:38:24.101Z,986.89
2019-03-04T02:39:24.109Z,986.95
2019-03-04T02:40:24.121Z,986.97
2019-03-04T02:41:24.133Z,986.98
2019-03-04T02:42:24.154Z,986.96
2019-03-04T02:43:24.165Z,987.07
2019-03-04T02:44:24.179Z,987.13
2019-03-04T02:45:24.190Z,987.16
2019-03-04T02:46:24.206Z,987.01
2019-03-04T02:47:24.220Z,987.01
2019-03-04T02:48:24.230Z,986.93
2019-03-04T02:49:24.236Z,986.97
2019-03-04T02:50:24.259Z,986.98
2019-03-04T02:51:24.271Z,987.00
2019-03-04T02:52:24.287Z,987.00
2019-03-04T02:53:24.292Z,987.05
2019-03-04T02:54:24.309Z,986.96
2019-03-04T02:55:24.321Z,986.90
2019-03-04T02:56:24.344Z,986.83
2019-03-04T02:57:24.378Z,986.71
2019-03-04T02:58:24.377Z,986.72
2019-03-04T02:59:24.461Z,986.64
2019-03-04T03:00:24.409Z,986.65
2019-03-04T03:01:24.406Z,986.71
2019-03-04T03:02:24.417Z,986.68
2019-03-04T03:03:24.421Z,986.64
2019-03-04T03:04:24.439Z,986.71
2019-03-04T03:05:24.468Z,986.62
2019-03-04T03:06:24.476Z,986.65
2019-03-04T03:07:24.476Z,986.55
2019-03-04T03:08:24.490Z,986.44
2019-03-04T03:09:24.517Z,986.41
2019-03-04T03:10:24.526Z,986.42
2019-03-04T03:11:24.530Z,986.35
2019-03-04T03:12:24.541Z,986.28
2019-03-04T03:13:24.553Z,986.33
2019-03-04T03:14:24.627Z,986.37
2019-03-04T03:15:24.590Z,986.43
2019-03-04T03:16:24.609Z,986.37
2019-03-04T03:17:24.618Z,986.35
2019-03-04T03:19:24.654Z,986.17
2019-03-04T03:20:24.646Z,986.16
2019-03-04T03:21:24.664Z,986.17
2019-03-04T03:22:24.681Z,986.06
2019-03-04T03:23:24.692Z,986.07
2019-03-04T03:24:24.704Z,986.03
2019-03-04T03:25:24.714Z,985.98
2019-03-04T03:26:24.727Z,985.94
2019-03-04T03:27:24.736Z,985.88
2019-03-04T03:28:24.754Z,985.89
2019-03-04T03:29:24.763Z,985.82
2019-03-04T03:30:24.814Z,985.80
2019-03-04T03:31:24.822Z,985.77
2019-03-04T03:32:24.831Z,985.73
2019-03-04T03:33:24.827Z,985.69
2019-03-04T03:34:24.835Z,985.50
2019-03-04T03:35:24.842Z,985.55
2019-03-04T03:36:24.861Z,985.50
2019-03-04T03:37:24.884Z,985.43
2019-03-04T03:38:24.884Z,985.31
2019-03-04T03:39:24.903Z,985.27
2019-03-04T03:40:24.919Z,985.16
2019-03-04T03:41:24.925Z,985.07
2019-03-04T03:42:24.963Z,985.10
2019-03-04T03:43:24.964Z,985.11
2019-03-04T03:44:24.982Z,984.89
2019-03-04T03:45:24.989Z,984.80
2019-03-04T03:46:24.991Z,984.63
2019-03-04T03:47:25.006Z,984.57
2019-03-04T03:48:25.030Z,984.53
2019-03-04T03:49:25.032Z,984.59
2019-03-04T03:50:25.048Z,984.69
2019-03-04T03:51:25.057Z,984.78
2019-03-04T03:52:25.081Z,984.82
2019-03-04T03:53:25.092Z,984.83
2019-03-04T03:54:25.094Z,984.98
2019-03-04T03:55:25.113Z,985.06
2019-03-04T03:56:25.143Z,985.03
2019-03-04T03:57:25.142Z,985.03
2019-03-04T03:58:25.593Z,984.93
2019-03-04T03:59:25.265Z,984.88
2019-03-04T04:00:25.173Z,984.67
2019-03-04T04:01:25.259Z,984.60
2019-03-04T04:02:25.242Z,984.60
2019-03-04T04:03:25.215Z,984.78
2019-03-04T04:04:25.238Z,984.86
2019-03-04T04:05:25.239Z,984.83
2019-03-04T04:06:25.266Z,984.81
2019-03-04T04:07:25.271Z,984.68
2019-03-04T04:08:25.283Z,984.74
2019-03-04T04:09:25.291Z,984.70
2019-03-04T04:10:25.320Z,984.66
2019-03-04T04:11:25.326Z,984.62
2019-03-04T04:12:25.331Z,984.45
2019-03-04T04:13:25.350Z,984.41
2019-03-04T04:14:25.365Z,984.39
2019-03-04T04:15:25.389Z,984.35
2019-03-04T04:16:25.388Z,984.30
2019-03-04T04:17:25.401Z,984.27
2019-03-04T04:18:25.412Z,984.23
2019-03-04T04:19:25.442Z,984.12
2019-03-04T04:20:25.460Z,984.06
2019-03-04T04:21:25.473Z,984.00
2019-03-04T04:22:25.468Z,984.00
2019-03-04T04:23:25.481Z,984.06
2019-03-04T04:24:25.541Z,984.02
2019-03-04T04:25:25.508Z,983.99
2019-03-04T04:26:25.519Z,984.03
2019-03-04T04:27:25.535Z,984.05
2019-03-04T04:28:25.654Z,983.99
2019-03-04T04:29:25.561Z,983.97
2019-03-04T04:30:25.573Z,983.92
2019-03-04T04:31:25.778Z,983.80
2019-03-04T04:32:25.601Z,983.67
2019-03-04T04:33:25.626Z,983.68
2019-03-04T04:34:25.622Z,983.73
2019-03-04T04:35:25.642Z,983.66
2019-03-04T04:36:25.655Z,983.51
2019-03-04T04:37:25.669Z,983.38
2019-03-04T04:38:25.684Z,983.34
2019-03-04T04:39:25.695Z,983.23
2019-03-04T04:40:25.701Z,983.17
2019-03-04T04:41:25.715Z,983.02
2019-03-04T04:42:25.728Z,983.13
2019-03-04T04:43:25.741Z,983.09
2019-03-04T04:44:25.760Z,983.15
2019-03-04T04:45:25.807Z,983.15
2019-03-04T04:46:25.781Z,983.10
2019-03-04T04:47:25.801Z,983.08
2019-03-04T04:48:25.812Z,982.98
2019-03-04T04:49:25.815Z,983.07
2019-03-04T04:50:25.828Z,982.98
2019-03-04T04:51:25.851Z,982.96
2019-03-04T04:52:25.858Z,982.89
2019-03-04T04:53:25.870Z,982.88
2019-03-04T04:54:25.891Z,982.84
2019-03-04T04:55:25.893Z,982.84
2019-03-04T04:56:25.907Z,982.89
2019-03-04T04:57:25.916Z,982.96
2019-03-04T04:58:25.931Z,982.90
2019-03-04T04:59:25.945Z,982.97
2019-03-04T05:00:25.961Z,982.98
2019-03-04T05:01:25.967Z,982.96
2019-03-04T05:02:25.985Z,982.99
2019-03-04T05:03:25.999Z,982.90
2019-03-04T05:04:26.047Z,982.90
2019-03-04T05:05:26.053Z,982.91
2019-03-04T05:06:26.038Z,982.93
2019-03-04T05:07:26.048Z,983.01
2019-03-04T05:08:26.066Z,982.89
2019-03-04T05:09:26.075Z,982.86
2019-03-04T05:10:26.095Z,982.81
2019-03-04T05:11:26.109Z,982.89
2019-03-04T05:12:26.122Z,982.72
2019-03-04T05:13:26.131Z,982.68
2019-03-04T05:14:26.142Z,982.75
2019-03-04T05:15:26.156Z,982.75
2019-03-04T05:16:26.168Z,982.68
2019-03-04T05:17:26.185Z,982.80
2019-03-04T05:18:26.196Z,982.71
2019-03-04T05:19:26.214Z,982.73
2019-03-04T05:20:26.225Z,982.67
2019-03-04T05:21:26.235Z,982.75
2019-03-04T05:22:26.249Z,982.58
2019-03-04T05:23:26.262Z,982.75
2019-03-04T05:24:26.273Z,982.60
2019-03-04T05:25:26.288Z,982.60
2019-03-04T05:26:26.299Z,982.56
2019-03-04T05:27:26.315Z,982.43
2019-03-04T05:28:26.328Z,982.49
2019-03-04T05:29:26.341Z,982.52
2019-03-04T05:30:26.363Z,982.42
2019-03-04T05:31:26.373Z,982.48
2019-03-04T05:32:26.421Z,982.38
2019-03-04T05:33:26.398Z,982.36
2019-03-04T05:34:26.427Z,982.45
2019-03-04T05:35:26.424Z,982.18
2019-03-04T05:36:26.434Z,982.40
2019-03-04T05:37:26.460Z,982.34
2019-03-04T05:38:26.491Z,982.28
2019-03-04T05:39:26.476Z,982.34
2019-03-04T05:40:26.484Z,982.30
2019-03-04T05:41:26.499Z,982.25
2019-03-04T05:42:26.511Z,982.19
2019-03-04T05:43:26.533Z,981.93
2019-03-04T05:44:26.539Z,982.08
2019-03-04T05:45:26.550Z,982.08
2019-03-04T05:46:26.576Z,982.01
2019-03-04T05:47:26.589Z,982.01
2019-03-04T05:48:26.592Z,982.03
2019-03-04T05:49:26.617Z,981.94
2019-03-04T05:50:26.618Z,981.88
2019-03-04T05:51:26.633Z,981.76
2019-03-04T05:52:28.087Z,981.74
2019-03-04T05:53:26.657Z,981.67
2019-03-04T05:54:26.673Z,981.78
2019-03-04T05:55:26.691Z,981.91
2019-03-04T05:56:26.699Z,981.90
2019-03-04T05:57:26.717Z,981.81
2019-03-04T05:58:26.733Z,981.83
2019-03-04T05:59:26.737Z,981.73
2019-03-04T06:00:26.751Z,981.90
2019-03-04T06:01:26.771Z,981.97
2019-03-04T06:02:26.787Z,981.83
2019-03-04T06:03:26.791Z,981.64
2019-03-04T06:04:26.806Z,981.64
2019-03-04T06:05:26.839Z,981.62
2019-03-04T06:06:26.834Z,981.58
2019-03-04T06:07:26.931Z,981.39
2019-03-04T06:08:26.864Z,981.41
2019-03-04T06:09:26.885Z,981.36
2019-03-04T06:10:26.899Z,981.25
2019-03-04T06:11:26.898Z,981.44
2019-03-04T06:12:26.914Z,981.45
2019-03-04T06:13:26.936Z,981.28
2019-03-04T06:14:26.949Z,981.32
2019-03-04T06:15:26.951Z,981.20
2019-03-04T06:16:26.967Z,981.26
2019-03-04T06:17:26.979Z,981.24
2019-03-04T06:18:26.989Z,981.26
2019-03-04T06:19:27.008Z,981.28
2019-03-04T06:20:27.015Z,981.13
2019-03-04T06:21:27.034Z,981.06
2019-03-04T06:22:27.153Z,981.08
2019-03-04T06:23:27.067Z,981.11
2019-03-04T06:24:27.076Z,981.09
2019-03-04T06:25:27.090Z,981.13
2019-03-04T06:26:27.101Z,981.28
2019-03-04T06:27:27.109Z,981.22
2019-03-04T06:28:27.157Z,981.59
2019-03-04T06:29:27.139Z,981.94
2019-03-04T06:30:27.153Z,982.19
2019-03-04T06:31:27.177Z,982.29
2019-03-04T06:32:27.179Z,981.87
2019-03-04T06:33:27.213Z,981.78
2019-03-04T06:34:27.210Z,981.68
2019-03-04T06:35:27.222Z,981.40
2019-03-04T06:36:27.233Z,981.20
2019-03-04T06:37:27.243Z,981.35
2019-03-04T06:38:27.266Z,981.22
2019-03-04T06:39:27.331Z,981.57
2019-03-04T06:40:27.286Z,981.36
2019-03-04T06:41:27.297Z,981.43
2019-03-04T06:43:27.342Z,981.64
2019-03-04T06:44:27.363Z,981.75
2019-03-04T06:45:27.346Z,981.80
2019-03-04T06:46:27.357Z,981.83
2019-03-04T06:47:27.390Z,981.87
2019-03-04T06:48:27.401Z,981.83
2019-03-04T06:49:27.407Z,982.20
2019-03-04T06:50:27.404Z,982.06
2019-03-04T06:51:27.414Z,982.24
2019-03-04T06:52:27.433Z,982.24
2019-03-04T06:53:27.445Z,982.29
2019-03-04T06:54:27.467Z,982.11
2019-03-04T06:55:27.460Z,982.42
2019-03-04T06:56:27.478Z,982.44
2019-03-04T06:57:28.564Z,982.17
2019-03-04T06:58:27.508Z,982.30
2019-03-04T06:59:27.568Z,982.35
2019-03-04T07:00:27.519Z,982.30
2019-03-04T07:01:27.536Z,982.19
2019-03-04T07:02:27.549Z,982.37
2019-03-04T07:03:27.959Z,982.32
2019-03-04T07:04:27.581Z,982.51
2019-03-04T07:05:27.581Z,982.47
2019-03-04T07:06:27.606Z,982.48
2019-03-04T07:07:28.405Z,982.45
2019-03-04T07:08:27.641Z,982.39
2019-03-04T07:09:27.635Z,982.28
2019-03-04T07:10:28.313Z,982.47
2019-03-04T07:11:27.660Z,982.64
2019-03-04T07:12:27.667Z,982.51
2019-03-04T07:13:27.678Z,982.63
2019-03-04T07:14:27.705Z,982.56
2019-03-04T07:15:27.756Z,982.56
2019-03-04T07:16:27.791Z,982.48
2019-03-04T07:17:27.752Z,982.45
2019-03-04T07:18:27.794Z,982.29
2019-03-04T07:19:27.792Z,982.04
2019-03-04T07:20:27.761Z,982.21
2019-03-04T07:21:27.776Z,982.19
2019-03-04T07:22:27.792Z,982.22
2019-03-04T07:23:27.802Z,982.09
2019-03-04T07:24:27.805Z,982.07
2019-03-04T07:25:27.882Z,982.12
2019-03-04T07:26:27.831Z,982.16
2019-03-04T07:27:27.886Z,982.22
2019-03-04T07:28:27.869Z,981.97
2019-03-04T07:29:27.895Z,982.15
2019-03-04T07:30:27.892Z,982.05
2019-03-04T07:31:27.891Z,982.15
2019-03-04T07:32:27.909Z,981.85
2019-03-04T07:33:27.930Z,982.03
2019-03-04T07:34:28.654Z,982.16
2019-03-04T07:35:27.943Z,982.18
2019-03-04T07:36:27.954Z,982.24
2019-03-04T07:37:27.963Z,982.20
2019-03-04T07:38:27.986Z,982.24
2019-03-04T07:39:27.992Z,982.18
2019-03-04T07:40:28.016Z,982.19
2019-03-04T07:41:28.011Z,982.26
2019-03-04T07:42:28.022Z,982.22
2019-03-04T07:43:28.032Z,982.32
2019-03-04T07:44:28.048Z,982.32
2019-03-04T07:45:28.057Z,982.38
2019-03-04T07:46:28.152Z,982.49
2019-03-04T07:47:28.331Z,982.43
2019-03-04T07:48:28.095Z,982.54
2019-03-04T07:49:28.211Z,982.50
2019-03-04T07:50:28.259Z,982.49
2019-03-04T07:52:28.146Z,982.43
2019-03-04T07:53:28.156Z,982.59
2019-03-04T07:54:28.248Z,982.52
2019-03-04T07:55:28.177Z,982.44
2019-03-04T07:56:28.237Z,982.49
2019-03-04T07:57:28.207Z,982.54
2019-03-04T07:58:28.442Z,982.48
2019-03-04T07:59:28.230Z,982.59
2019-03-04T08:00:28.244Z,982.62
2019-03-04T08:01:28.309Z,982.68
2019-03-04T08:02:28.351Z,982.73
2019-03-04T08:03:28.291Z,982.67
2019-03-04T08:04:28.299Z,982.66
2019-03-04T08:05:28.664Z,982.69
2019-03-04T08:07:28.455Z,982.71
2019-03-04T08:08:28.448Z,982.61
2019-03-04T08:09:28.588Z,982.66
2019-03-04T08:10:28.416Z,982.68
2019-03-04T08:11:28.412Z,982.62
2019-03-04T08:12:28.395Z,982.73
2019-03-04T08:13:28.403Z,982.60
2019-03-04T08:15:28.437Z,982.65
2019-03-04T08:16:28.438Z,982.69
2019-03-04T08:17:28.538Z,982.72
2019-03-04T08:18:28.482Z,982.49
2019-03-04T08:19:28.810Z,982.56
2019-03-04T08:20:28.486Z,982.65
2019-03-04T08:21:28.558Z,982.59
2019-03-04T08:22:29.058Z,982.48
2019-03-04T08:23:28.594Z,982.54
2019-03-04T08:24:28.545Z,982.65
2019-03-04T08:25:29.171Z,982.63
2019-03-04T08:26:28.893Z,982.66
2019-03-04T08:27:28.832Z,982.93
2019-03-04T08:28:28.672Z,982.88
2019-03-04T08:29:28.617Z,983.04
2019-03-04T08:30:28.624Z,983.24
2019-03-04T08:31:29.351Z,983.24
2019-03-04T08:32:29.633Z,983.36
2019-03-04T08:34:31.345Z,983.18
2019-03-04T08:35:28.671Z,983.21
2019-03-04T08:36:28.685Z,983.08
2019-03-04T08:37:28.723Z,983.27
2019-03-04T08:38:28.774Z,983.32
2019-03-04T08:39:28.731Z,983.35
2019-03-04T08:40:28.736Z,983.32
2019-03-04T08:41:28.768Z,983.38
2019-03-04T08:42:29.035Z,983.36
2019-03-04T08:44:30.994Z,983.22
2019-03-04T08:45:28.792Z,983.17
2019-03-04T08:46:28.799Z,983.11
2019-03-04T08:47:28.901Z,983.08
2019-03-04T08:48:28.868Z,983.06
2019-03-04T08:49:28.870Z,983.10
2019-03-04T08:50:28.846Z,983.06
2019-03-04T08:51:29.006Z,982.97
2019-03-04T08:52:29.385Z,983.07
2019-03-04T08:53:30.953Z,982.97
2019-03-04T08:55:28.898Z,983.00
2019-03-04T08:56:28.913Z,982.85
2019-03-04T08:57:28.926Z,982.92
2019-03-04T08:58:29.010Z,983.02
2019-03-04T08:59:28.964Z,982.98
2019-03-04T09:00:28.960Z,982.89
2019-03-04T09:01:31.145Z,982.86
2019-03-04T09:02:28.984Z,982.91
2019-03-04T09:03:28.992Z,982.87
2019-03-04T09:04:29.427Z,982.91
2019-03-04T09:05:29.033Z,982.93
2019-03-04T09:06:29.034Z,982.80
2019-03-04T09:07:29.065Z,982.91
2019-03-04T09:08:29.091Z,982.93
2019-03-04T09:09:29.068Z,982.92
2019-03-04T09:10:29.089Z,982.80
2019-03-04T09:11:29.091Z,982.98
2019-03-04T09:12:29.105Z,982.68
2019-03-04T09:13:29.185Z,982.67
2019-03-04T09:14:29.155Z,982.78
2019-03-04T09:15:29.165Z,982.73
2019-03-04T09:16:29.178Z,982.73
2019-03-04T09:17:29.163Z,982.75
2019-03-04T09:18:29.188Z,982.71
2019-03-04T09:19:29.992Z,982.80
2019-03-04T09:20:29.275Z,982.72
2019-03-04T09:21:29.263Z,982.74
2019-03-04T09:22:29.237Z,982.78
2019-03-04T09:23:29.241Z,982.93
2019-03-04T09:24:29.303Z,982.73
2019-03-04T09:25:30.687Z,982.67
2019-03-04T09:26:29.289Z,982.83
2019-03-04T09:27:29.288Z,982.76
2019-03-04T09:28:29.303Z,982.79
2019-03-04T09:29:29.324Z,982.76
2019-03-04T09:30:29.681Z,982.68
2019-03-04T09:31:30.562Z,982.70
2019-03-04T09:32:29.900Z,982.68
2019-03-04T09:33:29.504Z,982.75
2019-03-04T09:34:29.377Z,982.41
2019-03-04T09:35:29.392Z,982.50
2019-03-04T09:36:29.466Z,982.78
2019-03-04T09:37:29.411Z,982.62
2019-03-04T09:38:29.911Z,982.67
2019-03-04T09:39:29.473Z,982.80
2019-03-04T09:40:29.509Z,982.60
2019-03-04T09:41:29.619Z,982.62
2019-03-04T09:42:29.479Z,982.57
2019-03-04T09:43:29.597Z,982.72
2019-03-04T09:44:29.497Z,982.67
2019-03-04T09:45:38.363Z,982.63
2019-03-04T09:46:29.574Z,982.60
2019-03-04T09:47:29.537Z,982.79
2019-03-04T09:48:29.573Z,982.82
2019-03-04T09:49:29.560Z,982.68
2019-03-04T09:50:29.580Z,982.68
2019-03-04T09:51:29.595Z,982.76
2019-03-04T09:52:29.599Z,982.92
2019-03-04T09:53:38.870Z,982.73
2019-03-04T09:54:29.636Z,982.79
2019-03-04T09:55:29.642Z,982.68
2019-03-04T09:56:29.738Z,982.77
2019-03-04T09:57:29.742Z,982.68
2019-03-04T09:58:29.673Z,982.64
2019-03-04T09:59:29.689Z,982.65
2019-03-04T10:00:29.707Z,982.70
2019-03-04T10:01:29.713Z,982.74
2019-03-04T10:02:29.727Z,982.73
2019-03-04T10:03:29.750Z,982.76
2019-03-04T10:04:29.765Z,982.79
2019-03-04T10:05:31.691Z,982.85
2019-03-04T10:06:29.871Z,982.90
2019-03-04T10:07:29.789Z,982.86
2019-03-04T10:08:32.849Z,982.96
2019-03-04T10:10:29.843Z,983.04
2019-03-04T10:11:29.846Z,983.15
2019-03-04T10:12:30.705Z,982.97
2019-03-04T10:13:29.882Z,982.95
2019-03-04T10:14:29.877Z,983.17
2019-03-04T10:15:29.891Z,983.10
2019-03-04T10:16:29.903Z,983.12
2019-03-04T10:17:29.929Z,983.00
2019-03-04T10:18:30.014Z,983.08
2019-03-04T10:19:29.993Z,982.96
2019-03-04T10:20:29.965Z,983.09
2019-03-04T10:21:29.963Z,983.18
2019-03-04T10:22:29.990Z,983.07
2019-03-04T10:23:30.000Z,983.08
2019-03-04T10:24:29.999Z,983.13
2019-03-04T10:25:30.014Z,983.17
2019-03-04T10:26:30.037Z,983.13
2019-03-04T10:27:30.167Z,983.10
2019-03-04T10:28:30.053Z,983.17
2019-03-04T10:29:30.102Z,983.24
2019-03-04T10:30:30.949Z,983.25
2019-03-04T10:31:30.096Z,983.07
2019-03-04T10:32:30.098Z,983.07
2019-03-04T10:33:30.112Z,982.98
2019-03-04T10:34:32.012Z,983.05
2019-03-04T10:35:30.688Z,982.96
2019-03-04T10:36:30.154Z,982.89
2019-03-04T10:37:30.174Z,983.00
2019-03-04T10:38:30.304Z,983.11
2019-03-04T10:39:30.194Z,983.18
2019-03-04T10:40:30.641Z,983.04
2019-03-04T10:41:30.374Z,982.96
2019-03-04T10:42:30.239Z,982.93
2019-03-04T10:43:30.287Z,983.11
2019-03-04T10:44:30.260Z,982.90
2019-03-04T10:45:30.259Z,982.88
2019-03-04T10:46:30.300Z,982.91
2019-03-04T10:47:30.305Z,982.98
2019-03-04T10:48:30.299Z,982.91
2019-03-04T10:49:30.311Z,982.87
2019-03-04T10:50:32.000Z,982.91
2019-03-04T10:52:30.350Z,982.83
2019-03-04T10:53:31.374Z,982.76
2019-03-04T10:54:31.045Z,982.83
2019-03-04T10:55:30.463Z,982.84
2019-03-04T10:56:30.550Z,982.79
2019-03-04T10:57:30.565Z,982.97
2019-03-04T10:58:30.453Z,982.84
2019-03-04T10:59:30.470Z,982.80
2019-03-04T11:00:30.466Z,982.66
2019-03-04T11:01:30.836Z,982.82
2019-03-04T11:02:30.502Z,982.59
2019-03-04T11:03:30.505Z,982.80
2019-03-04T11:04:30.523Z,982.78
2019-03-04T11:05:30.515Z,982.81
2019-03-04T11:06:30.537Z,982.97
2019-03-04T11:07:30.553Z,982.97
2019-03-04T11:08:30.569Z,982.68
2019-03-04T11:09:30.561Z,983.19
2019-03-04T11:10:30.578Z,983.07
2019-03-04T11:11:30.687Z,983.30
2019-03-04T11:12:30.597Z,983.46
2019-03-04T11:13:30.644Z,983.68
2019-03-04T11:14:30.627Z,983.81
2019-03-04T11:15:30.640Z,984.09
2019-03-04T11:16:30.657Z,983.97
2019-03-04T11:17:30.685Z,984.02
2019-03-04T11:18:30.765Z,984.18
2019-03-04T11:19:30.707Z,984.18
2019-03-04T11:20:30.731Z,984.21
2019-03-04T11:21:30.708Z,984.19
2019-03-04T11:22:30.734Z,984.16
2019-03-04T11:23:30.745Z,984.25
2019-03-04T11:24:30.746Z,984.28
2019-03-04T11:25:30.773Z,984.22
2019-03-04T11:27:30.778Z,984.39
2019-03-04T11:28:30.836Z,984.18
2019-03-04T11:29:30.936Z,984.21
2019-03-04T11:30:30.980Z,984.28
2019-03-04T11:31:30.963Z,984.20
2019-03-04T11:32:30.963Z,984.25
2019-03-04T11:33:30.943Z,984.26
2019-03-04T11:34:30.927Z,984.48
2019-03-04T11:35:30.942Z,984.20
2019-03-04T11:36:31.036Z,984.31
2019-03-04T11:37:32.864Z,984.34
2019-03-04T11:38:31.132Z,984.30
2019-03-04T11:39:30.937Z,984.28
2019-03-04T11:40:30.979Z,984.28
2019-03-04T11:41:31.034Z,984.27
2019-03-04T11:42:30.944Z,984.30
2019-03-04T11:43:30.960Z,984.35
2019-03-04T11:44:31.958Z,984.25
2019-03-04T11:45:31.025Z,984.34
2019-03-04T11:46:31.039Z,984.38
2019-03-04T11:47:31.023Z,984.28
2019-03-04T11:48:31.118Z,984.22
2019-03-04T11:49:31.166Z,984.18
2019-03-04T11:50:31.130Z,984.23
2019-03-04T11:51:31.158Z,984.28
2019-03-04T11:52:31.065Z,984.30
2019-03-04T11:53:31.077Z,984.36
2019-03-04T11:54:31.082Z,984.33
2019-03-04T11:55:31.096Z,984.34
2019-03-04T11:56:31.093Z,984.38
2019-03-04T11:57:31.307Z,984.45
2019-03-04T11:59:31.159Z,984.52
2019-03-04T12:00:31.146Z,984.53
2019-03-04T12:01:31.147Z,984.57
2019-03-04T12:02:38.538Z,984.62
2019-03-04T12:03:31.251Z,984.60
2019-03-04T12:04:31.459Z,984.61
2019-03-04T12:05:31.200Z,984.64
2019-03-04T12:06:31.250Z,984.60
2019-03-04T12:07:31.220Z,984.69
2019-03-04T12:08:31.263Z,984.69
2019-03-04T12:09:31.297Z,984.71
2019-03-04T12:10:31.436Z,984.68
2019-03-04T12:11:37.945Z,984.72
2019-03-04T12:12:31.499Z,984.75
2019-03-04T12:13:31.286Z,984.73
2019-03-04T12:14:31.314Z,984.85
2019-03-04T12:15:31.324Z,984.87
2019-03-04T12:16:31.320Z,984.87
2019-03-04T12:17:31.346Z,985.05
2019-03-04T12:18:31.357Z,984.90
2019-03-04T12:19:31.368Z,984.92
2019-03-04T12:20:31.368Z,984.90
2019-03-04T12:21:31.591Z,984.96
2019-03-04T12:22:31.400Z,984.98
2019-03-04T12:23:31.443Z,984.92
2019-03-04T12:24:31.429Z,984.94
2019-03-04T12:25:31.427Z,984.99
2019-03-04T12:26:31.463Z,985.17
2019-03-04T12:27:31.505Z,985.16
2019-03-04T12:28:31.700Z,985.18
2019-03-04T12:29:31.477Z,985.22
2019-03-04T12:30:31.522Z,985.21
2019-03-04T12:31:31.515Z,985.22
2019-03-04T12:32:31.518Z,985.23
2019-03-04T12:33:31.536Z,985.23
2019-03-04T12:34:31.754Z,985.30
2019-03-04T12:35:32.007Z,985.31
2019-03-04T12:36:31.576Z,985.37
2019-03-04T12:37:31.646Z,985.32
2019-03-04T12:38:31.600Z,985.26
2019-03-04T12:39:31.602Z,985.36
2019-03-04T12:40:31.617Z,985.38
2019-03-04T12:41:31.629Z,985.35